Time;durP1;ratioP1;P1;durP2;ratioP2;P2;SDS_P1;SDS_P2;PMS_P1;PMS_P2;Temp;Humidity;BMP_temperature;BMP_pressure;BME280_temperature;BME280_humidity;BME280_pressure;Samples;Min_cycle;Max_cycle;Signal;HPM_P1;HPM_P2
2022/05/29 00:01:18;;;;;;;;;;;;;;;-142.75;100.00;77909.06;5030517;28;19921;-70
2022/05/29 00:03:44;;;;;;;;;;;;;;;-142.75;100.00;77911.06;5031259;28;19924;-70
2022/05/29 00:06:10;;;;;;;;;;;;;;;-142.75;100.00;77903.16;5030370;28;20008;-70
2022/05/29 00:08:38;;;;;;;;;;;;;;;-142.75;100.00;77905.13;5031302;28;19964;-70
2022/05/29 00:11:03;;;;;;;;;;;;;;;-142.75;100.00;77909.06;5030374;28;19917;-70
2022/05/29 00:13:29;;;;;;;;;;;;;;;-142.75;100.00;77920.91;5030234;28;19923;-70
2022/05/29 00:15:54;;;;;;;;;;;;;;;-142.75;100.00;77913.03;5029949;28;19968;-69
2022/05/29 00:18:20;;;;;;;;;;;;;;;-142.75;100.00;77913.03;5029907;28;19917;-70
2022/05/29 00:20:48;;;;;;;;;;;;;;;-142.75;100.00;77915.00;5031653;28;19947;-70
2022/05/29 00:23:13;;;;;;;;;;;;;;;-142.75;100.00;77926.81;5029931;28;19951;-69
2022/05/29 00:25:38;;;;;;;;;;;;;;;-142.75;100.00;77922.88;5031364;28;19956;-70
2022/05/29 00:28:03;;;;;;;;;;;;;;;-142.75;100.00;77924.84;5030748;28;19921;-70
2022/05/29 00:30:29;;;;;;;;;;;;;;;-142.75;100.00;77920.91;5031415;28;20357;-70
2022/05/29 00:32:54;;;;;;;;;;;;;;;-142.75;100.00;77920.91;5031162;28;20293;-70
2022/05/29 00:35:19;;;;;;;;;;;;;;;-142.75;100.00;77918.94;5029686;28;19917;-71
2022/05/29 00:37:47;;;;;;;;;;;;;;;-142.75;100.00;77920.91;5030993;28;19917;-68
2022/05/29 00:40:28;;;;;;;;;;;;;;;-142.75;100.00;77928.78;5031098;28;19921;-70
2022/05/29 00:42:53;;;;;;;;;;;;;;;-142.75;100.00;77922.88;5030418;28;20526;-70
2022/05/29 00:45:19;;;;;;;;;;;;;;;-142.75;100.00;77928.78;5030878;28;19928;-70
2022/05/29 00:47:45;;;;;;;;;;;;;;;-142.75;100.00;77936.66;5030551;28;19970;-70
2022/05/29 00:50:10;;;;;;;;;;;;;;;-142.75;100.00;77940.59;5031280;28;20011;-70
2022/05/29 00:52:36;;;;;;;;;;;;;;;-142.75;100.00;77934.69;5029020;28;19917;-70
2022/05/29 00:55:03;;;;;;;;;;;;;;;-142.75;100.00;77932.72;5029399;28;19917;-70
2022/05/29 00:57:28;;;;;;;;;;;;;;;-142.75;100.00;77924.84;5030491;28;19921;-70
2022/05/29 00:59:54;;;;;;;;;;;;;;;-142.75;100.00;77920.91;5029355;28;19955;-69
2022/05/29 01:02:20;;;;;;;;;;;;;;;-142.75;100.00;77909.06;5030567;28;20374;-70
2022/05/29 01:04:45;;;;;;;;;;;;;;;-142.75;100.00;77909.06;5028939;28;19924;-70
2022/05/29 01:07:13;;;;;;;;;;;;;;;-142.75;100.00;77907.09;5029348;28;19921;-70
2022/05/29 01:09:40;;;;;;;;;;;;;;;-142.75;100.00;77903.16;5030054;28;19917;-70
2022/05/29 01:12:14;;;;;;;;;;;;;;;-142.75;100.00;77895.28;5030704;28;20004;-70
2022/05/29 01:14:42;;;;;;;;;;;;;;;-142.75;100.00;77891.34;5029088;28;19917;-70
2022/05/29 01:17:22;;;;;;;;;;;;;;;-142.75;100.00;77897.25;5029316;28;19925;-70
2022/05/29 01:19:56;;;;;;;;;;;;;;;-142.75;100.00;77903.16;5030781;28;19979;-70
2022/05/29 01:22:24;;;;;;;;;;;;;;;-142.75;100.00;77913.03;5030652;28;20293;-70
2022/05/29 01:25:00;;;;;;;;;;;;;;;-142.75;100.00;77901.19;5030223;28;19925;-70
2022/05/29 01:27:43;;;;;;;;;;;;;;;-142.75;100.00;77895.28;5030509;28;19964;-70
2022/05/29 01:30:13;;;;;;;;;;;;;;;-142.75;100.00;77893.31;5030302;28;20352;-71
2022/05/29 01:33:01;;;;;;;;;;;;;;;-142.75;100.00;77901.19;5030191;28;20334;-70
2022/05/29 01:35:37;;;;;;;;;;;;;;;-142.75;100.00;77913.03;5030198;28;19926;-70
2022/05/29 01:38:17;;;;;;;;;;;;;;;-142.75;100.00;77909.06;5029977;28;19917;-70
2022/05/29 01:40:56;;;;;;;;;;;;;;;-142.75;100.00;77909.06;5030384;28;19955;-70
2022/05/29 01:43:35;;;;;;;;;;;;;;;-142.75;100.00;77903.16;5030288;28;20083;-71
2022/05/29 01:46:09;;;;;;;;;;;;;;;-142.75;100.00;77901.19;5030443;28;19918;-70
2022/05/29 01:48:54;;;;;;;;;;;;;;;-142.75;100.00;77897.25;5030139;28;20008;-70
2022/05/29 01:51:31;;;;;;;;;;;;;;;-142.75;100.00;77893.31;5030637;28;19987;-70
2022/05/29 01:54:02;;;;;;;;;;;;;;;-142.75;100.00;77893.31;5028976;28;19921;-71
2022/05/29 01:56:30;;;;;;;;;;;;;;;-142.75;100.00;77885.44;5030168;28;19921;-70
2022/05/29 01:59:07;;;;;;;;;;;;;;;-142.75;100.00;77889.38;5029786;28;19918;-70
2022/05/29 02:01:35;;;;;;;;;;;;;;;-142.75;100.00;77883.47;5030092;28;20003;-70
2022/05/29 02:04:02;;;;;;;;;;;;;;;-142.75;100.00;77877.56;5029962;28;19924;-70
2022/05/29 02:07:47;;;;;;;;;;;;;;;-142.75;100.00;77865.75;5034001;28;20401;-70
2022/05/29 02:09:20;;;;;;;;;;;;;;;-142.75;100.00;77859.84;5033359;28;19952;-71
2022/05/29 02:11:49;;;;;;;;;;;;;;;-142.75;100.00;77857.88;5033917;28;20298;-70
2022/05/29 02:14:19;;;;;;;;;;;;;;;-142.75;100.00;77857.88;5033580;28;19917;-70
2022/05/29 02:16:52;;;;;;;;;;;;;;;-142.75;100.00;77846.06;5033495;28;19921;-70
2022/05/29 02:19:22;;;;;;;;;;;;;;;-142.75;100.00;77840.16;5033871;28;20012;-70
2022/05/29 02:22:07;;;;;;;;;;;;;;;-142.75;100.00;77832.28;5033252;28;19932;-70
2022/05/29 02:24:35;;;;;;;;;;;;;;;-142.75;100.00;77826.38;5033226;28;20015;-71
2022/05/29 02:27:14;;;;;;;;;;;;;;;-142.75;100.00;77814.56;5033594;28;19931;-69
2022/05/29 02:29:39;;;;;;;;;;;;;;;-142.75;100.00;77806.69;5031779;28;20007;-69
2022/05/29 02:32:14;;;;;;;;;;;;;;;-142.75;100.00;77800.78;5015555;28;19927;-71
2022/05/29 02:34:51;;;;;;;;;;;;;;;-142.75;100.00;77796.84;5033106;28;19925;-70
2022/05/29 02:37:22;;;;;;;;;;;;;;;-142.75;100.00;77788.97;5033303;28;20024;-70
2022/05/29 02:40:02;;;;;;;;;;;;;;;-142.75;100.00;77775.19;5031866;28;20556;-70
2022/05/29 02:42:35;;;;;;;;;;;;;;;-142.75;100.00;77763.38;5033233;28;19963;-70
2022/05/29 02:45:01;;;;;;;;;;;;;;;-142.75;100.00;77759.44;5032902;28;20371;-70
2022/05/29 02:47:34;;;;;;;;;;;;;;;-142.75;100.00;77747.63;5033229;28;19927;-71
2022/05/29 02:50:14;;;;;;;;;;;;;;;-142.75;100.00;77737.78;5032044;28;20462;-69
2022/05/29 02:52:39;;;;;;;;;;;;;;;-142.75;100.00;77731.88;5032936;28;19917;-70
2022/05/29 02:55:04;;;;;;;;;;;;;;;-142.75;100.00;77723.97;5032881;28;20383;-69
2022/05/29 02:57:29;;;;;;;;;;;;;;;-142.75;100.00;77718.06;5031368;28;20019;-70
2022/05/29 02:59:58;;;;;;;;;;;;;;;-142.75;100.00;77708.22;5032772;28;19971;-70
2022/05/29 03:02:31;;;;;;;;;;;;;;;-142.75;100.00;77704.28;5031402;28;20342;-70
2022/05/29 03:04:56;;;;;;;;;;;;;;;-142.75;100.00;77692.47;5032660;28;20401;-70
2022/05/29 03:07:21;;;;;;;;;;;;;;;-142.75;100.00;77694.44;5032860;28;19917;-71
2022/05/29 03:10:05;;;;;;;;;;;;;;;-142.75;100.00;77688.53;5032378;28;19917;-70
2022/05/29 03:12:48;;;;;;;;;;;;;;;-142.75;100.00;77688.53;5032557;28;19953;-70
2022/05/29 03:15:24;;;;;;;;;;;;;;;-142.75;100.00;77686.56;5032071;28;19963;-71
2022/05/29 03:17:50;;;;;;;;;;;;;;;-142.75;100.00;77684.59;5031196;28;19917;-70
2022/05/29 03:20:20;;;;;;;;;;;;;;;-142.75;100.00;77680.66;5032903;28;19924;-70
2022/05/29 03:22:56;;;;;;;;;;;;;;;-142.75;100.00;77672.78;5032497;28;20298;-70
2022/05/29 03:25:26;;;;;;;;;;;;;;;-142.75;100.00;77678.69;5031060;28;20272;-70
2022/05/29 03:27:53;;;;;;;;;;;;;;;-142.75;100.00;77682.63;5031877;28;20386;-70
2022/05/29 03:30:21;;;;;;;;;;;;;;;-142.75;100.00;77684.59;5032429;28;19917;-70
2022/05/29 03:32:48;;;;;;;;;;;;;;;-142.75;100.00;77678.69;5032199;28;19920;-70
2022/05/29 03:35:16;;;;;;;;;;;;;;;-142.75;100.00;77684.59;5030759;28;19917;-70
2022/05/29 03:37:41;;;;;;;;;;;;;;;-142.75;100.00;77676.72;5032229;28;19924;-70
2022/05/29 03:40:07;;;;;;;;;;;;;;;-142.75;100.00;77688.53;5031960;28;19917;-70
2022/05/29 03:42:32;;;;;;;;;;;;;;;-142.75;100.00;77682.63;5032013;28;20489;-70
2022/05/29 03:44:57;;;;;;;;;;;;;;;-142.75;100.00;77696.41;5032069;28;20062;-70
2022/05/29 03:47:22;;;;;;;;;;;;;;;-142.75;100.00;77696.41;5032030;28;20003;-71
2022/05/29 03:49:48;;;;;;;;;;;;;;;-142.75;100.00;77706.25;5032276;28;19917;-70
2022/05/29 03:52:13;;;;;;;;;;;;;;;-142.75;100.00;77700.34;5032128;28;20387;-70
2022/05/29 03:54:38;;;;;;;;;;;;;;;-142.75;100.00;77700.34;5031854;28;19957;-70
2022/05/29 03:57:03;;;;;;;;;;;;;;;-142.75;100.00;77702.31;5031748;28;20375;-69
2022/05/29 03:59:29;;;;;;;;;;;;;;;-142.75;100.00;77702.31;5011812;28;19918;-70
2022/05/29 04:01:54;;;;;;;;;;;;;;;-142.75;100.00;77712.16;5010692;28;19918;-70
2022/05/29 04:04:19;;;;;;;;;;;;;;;-142.75;100.00;77696.41;5010503;28;20392;-70
2022/05/29 04:06:44;;;;;;;;;;;;;;;-142.75;100.00;77694.44;5033570;23;19925;-66
2022/05/29 04:12:07;;;;;;;;;;;;;;;-142.75;100.00;77688.53;5031484;28;20028;-66
2022/05/29 04:14:34;;;;;;;;;;;;;;;-142.75;100.00;77680.66;5031596;28;19943;-67
2022/05/29 04:16:59;;;;;;;;;;;;;;;-142.75;100.00;77668.84;5031075;28;19925;-67
2022/05/29 04:19:24;;;;;;;;;;;;;;;-142.75;100.00;77668.84;5031536;28;19940;-66
2022/05/29 04:21:51;;;;;;;;;;;;;;;-142.75;100.00;77676.72;5031198;28;19917;-66
2022/05/29 04:24:19;;;;;;;;;;;;;;;-142.75;100.00;77674.75;5031269;28;20023;-66
2022/05/29 04:26:44;;;;;;;;;;;;;;;-142.75;100.00;77684.59;5012941;28;20349;-66
2022/05/29 04:29:09;;;;;;;;;;;;;;;-142.75;100.00;77668.84;5030509;28;19952;-66
2022/05/29 04:31:34;;;;;;;;;;;;;;;-142.75;100.00;77668.84;5030991;28;19964;-66
2022/05/29 04:34:00;;;;;;;;;;;;;;;-142.75;100.00;77674.75;5031144;28;19963;-66
2022/05/29 04:36:25;;;;;;;;;;;;;;;-142.75;100.00;77672.78;5030895;28;19929;-66
2022/05/29 04:38:51;;;;;;;;;;;;;;;-142.75;100.00;77664.91;5013117;28;20443;-66
2022/05/29 04:41:19;;;;;;;;;;;;;;;-142.75;100.00;77653.09;5030831;28;19925;-66
2022/05/29 04:43:44;;;;;;;;;;;;;;;-142.75;100.00;77649.16;5030865;28;19959;-66
2022/05/29 04:46:09;;;;;;;;;;;;;;;-142.75;100.00;77645.22;5030962;28;20383;-66
2022/05/29 04:48:35;;;;;;;;;;;;;;;-142.75;100.00;77641.28;5030297;28;19929;-66
2022/05/29 04:51:02;;;;;;;;;;;;;;;-142.75;100.00;77639.31;5031389;28;20285;-66
2022/05/29 04:53:28;;;;;;;;;;;;;;;-142.75;100.00;77635.38;5030683;28;20338;-66
2022/05/29 04:55:54;;;;;;;;;;;;;;;-142.75;100.00;77633.41;5030598;28;19966;-66
2022/05/29 04:58:20;;;;;;;;;;;;;;;-142.75;100.00;77637.34;5030294;28;19944;-65
2022/05/29 05:00:45;;;;;;;;;;;;;;;-142.75;100.00;77645.22;5030640;28;20382;-65
2022/05/29 05:03:10;;;;;;;;;;;;;;;-142.75;100.00;77649.16;5030433;28;19917;-65
2022/05/29 05:05:36;;;;;;;;;;;;;;;-142.75;100.00;77655.06;5030512;28;20425;-65
2022/05/29 05:08:02;;;;;;;;;;;;;;;-142.75;100.00;77649.16;5030496;28;19925;-65
2022/05/29 05:10:27;;;;;;;;;;;;;;;-142.75;100.00;77645.22;5030391;28;20015;-65
2022/05/29 05:12:52;;;;;;;;;;;;;;;-142.75;100.00;77637.34;5030466;28;20397;-65
2022/05/29 05:15:18;;;;;;;;;;;;;;;-142.75;100.00;77627.50;5030412;28;20395;-65
2022/05/29 05:17:43;;;;;;;;;;;;;;;-142.75;100.00;77635.38;5030100;28;20382;-65
2022/05/29 05:20:09;;;;;;;;;;;;;;;-142.75;100.00;77621.59;5030958;28;19983;-65
2022/05/29 05:22:34;;;;;;;;;;;;;;;-142.75;100.00;77621.59;5030259;28;19917;-65
2022/05/29 05:24:59;;;;;;;;;;;;;;;-142.75;100.00;77623.56;5030312;28;19924;-65
2022/05/29 05:27:25;;;;;;;;;;;;;;;-142.75;100.00;77619.63;5022724;28;19917;-65
2022/05/29 05:29:50;;;;;;;;;;;;;;;-142.75;100.00;77613.72;5010212;28;20371;-66
2022/05/29 05:32:15;;;;;;;;;;;;;;;-142.75;100.00;77615.69;5010675;28;19964;-65
2022/05/29 05:34:41;;;;;;;;;;;;;;;-142.75;100.00;77609.78;5010597;28;19953;-65
2022/05/29 05:37:07;;;;;;;;;;;;;;;-142.75;100.00;77603.88;5010470;28;20294;-65
2022/05/29 05:39:32;;;;;;;;;;;;;;;-142.75;100.00;77586.16;5021893;28;20016;-65
2022/05/29 05:41:57;;;;;;;;;;;;;;;-142.75;100.00;77594.03;5034337;28;19924;-65
2022/05/29 05:44:22;;;;;;;;;;;;;;;-142.75;100.00;77588.13;5034133;28;19987;-65
2022/05/29 05:46:49;;;;;;;;;;;;;;;-142.75;100.00;77588.13;5034092;28;19944;-65
2022/05/29 05:49:18;;;;;;;;;;;;;;;-142.75;100.00;77594.03;5033928;28;19917;-65
2022/05/29 05:51:43;;;;;;;;;;;;;;;-142.75;100.00;77594.03;5034277;28;19917;-65
2022/05/29 05:54:09;;;;;;;;;;;;;;;-142.75;100.00;77601.91;5034089;28;19959;-65
2022/05/29 05:56:34;;;;;;;;;;;;;;;-142.75;100.00;77597.97;5033722;28;19921;-65
2022/05/29 05:58:59;;;;;;;;;;;;;;;-142.75;100.00;77615.69;5033632;28;19917;-65
2022/05/29 06:01:24;;;;;;;;;;;;;;;-142.75;100.00;77613.72;5034006;28;20607;-65
2022/05/29 06:03:50;;;;;;;;;;;;;;;-142.75;100.00;77617.66;5015963;28;19921;-65
2022/05/29 06:06:15;;;;;;;;;;;;;;;-142.75;100.00;77619.63;5033548;28;19917;-65
2022/05/29 06:08:40;;;;;;;;;;;;;;;-142.75;100.00;77655.06;5033605;28;19917;-65
2022/05/29 06:11:05;;;;;;;;;;;;;;;-142.75;100.00;77657.03;5033819;28;19917;-65
2022/05/29 06:13:31;;;;;;;;;;;;;;;-142.75;100.00;77672.78;5033598;28;19917;-65
2022/05/29 06:16:03;;;;;;;;;;;;;;;-142.75;100.00;77678.69;5033469;28;20394;-65
2022/05/29 06:18:28;;;;;;;;;;;;;;;-142.75;100.00;77682.63;5033348;28;20301;-65
2022/05/29 06:20:58;;;;;;;;;;;;;;;-142.75;100.00;77684.59;5034067;28;19917;-65
2022/05/29 06:23:23;;;;;;;;;;;;;;;-142.75;100.00;77672.78;5033521;28;20003;-65
2022/05/29 06:25:48;;;;;;;;;;;;;;;-142.75;100.00;77668.84;5025753;28;19917;-65
2022/05/29 06:28:13;;;;;;;;;;;;;;;-142.75;100.00;77655.06;5013505;28;19924;-65
2022/05/29 06:30:40;;;;;;;;;;;;;;;-142.75;100.00;77637.34;5013849;28;19925;-65
2022/05/29 06:33:05;;;;;;;;;;;;;;;-142.75;100.00;77619.63;5013693;28;19924;-65
2022/05/29 06:35:30;;;;;;;;;;;;;;;-142.75;100.00;77594.03;5013811;28;19917;-65
2022/05/29 06:37:55;;;;;;;;;;;;;;;-142.75;100.00;77570.41;4995794;28;19921;-65
2022/05/29 06:40:20;;;;;;;;;;;;;;;-142.75;100.00;77552.69;5012497;28;19917;-65
2022/05/29 06:42:46;;;;;;;;;;;;;;;-142.75;100.00;77546.78;5014154;28;20318;-64
2022/05/29 06:45:11;;;;;;;;;;;;;;;-142.75;100.00;77540.88;5013993;28;19949;-65
2022/05/29 06:47:38;;;;;;;;;;;;;;;-142.75;100.00;77542.84;5014009;28;19922;-65
2022/05/29 06:50:04;;;;;;;;;;;;;;;-142.75;100.00;77525.13;5012968;28;19964;-65
2022/05/29 06:52:31;;;;;;;;;;;;;;;-142.75;100.00;77509.38;5013575;28;20378;-65
2022/05/29 06:54:56;;;;;;;;;;;;;;;-142.75;100.00;77491.66;5032548;28;20003;-64
2022/05/29 06:57:36;;;;;;;;;;;;;;;-142.75;100.00;77471.97;5012230;28;20368;-65
2022/05/29 07:08:01;;;;;;;;;;;;;;;-142.75;100.00;77471.97;5012480;28;20411;-65
2022/05/29 07:10:28;;;;;;;;;;;;;;;-142.75;100.00;77471.97;5012660;28;19928;-65
2022/05/29 07:12:53;;;;;;;;;;;;;;;-142.75;100.00;77473.94;5012591;28;20295;-65
2022/05/29 07:15:19;;;;;;;;;;;;;;;-142.75;100.00;77493.63;5012603;28;19918;-65
2022/05/29 07:17:44;;;;;;;;;;;;;;;-142.75;100.00;77507.41;5012485;28;20010;-64
2022/05/29 07:20:10;;;;;;;;;;;;;;;-142.75;100.00;77517.25;5012339;28;20044;-65
2022/05/29 07:22:35;;;;;;;;;;;;;;;-142.75;100.00;77517.25;5012217;28;19924;-65
2022/05/29 07:25:01;;;;;;;;;;;;;;;-142.75;100.00;77513.31;5012408;28;20541;-64
2022/05/29 07:27:26;;;;;;;;;;;;;;;-142.75;100.00;77513.31;5012262;28;20387;-65
2022/05/29 07:29:53;;;;;;;;;;;;;;;-142.75;100.00;77513.31;5007505;28;19928;-66
2022/05/29 07:32:19;;;;;;;;;;;;;;;-142.75;100.00;77495.59;5011194;28;19925;-65
2022/05/29 07:34:45;;;;;;;;;;;;;;;-142.75;100.00;77468.03;5005797;28;19921;-66
2022/05/29 07:37:11;;;;;;;;;;;;;;;-142.75;100.00;77471.97;5013684;28;19929;-65
2022/05/29 07:39:38;;;;;;;;;;;;;;;-142.75;100.00;77448.34;5031331;28;20406;-66
2022/05/29 07:44:49;;;;;;;;;;;;;;;-142.75;100.00;77401.06;5031943;28;19924;-64
2022/05/29 07:47:14;;;;;;;;;;;;;;;-142.75;100.00;77405.00;5031485;28;19917;-65
2022/05/29 07:49:39;;;;;;;;;;;;;;;-142.75;100.00;77444.38;5031067;28;20071;-65
2022/05/29 07:52:04;;;;;;;;;;;;;;;-142.75;100.00;77456.22;5031197;28;19921;-65
2022/05/29 07:54:29;;;;;;;;;;;;;;;-142.75;100.00;77464.09;5031721;28;19917;-66
2022/05/29 07:56:55;;;;;;;;;;;;;;;-142.75;100.00;77479.84;5031087;28;20276;-65
2022/05/29 07:59:21;;;;;;;;;;;;;;;-142.75;100.00;77493.63;5030354;28;19917;-65
2022/05/29 08:01:47;;;;;;;;;;;;;;;-142.75;100.00;77487.72;5029756;28;19936;-65
2022/05/29 08:04:13;;;;;;;;;;;;;;;-142.75;100.00;77495.59;5030489;28;20023;-66
2022/05/29 08:06:38;;;;;;;;;;;;;;;-142.75;100.00;77483.78;5030696;28;20430;-65
2022/05/29 08:09:03;;;;;;;;;;;;;;;-142.75;100.00;77477.88;5031150;28;19921;-65
2022/05/29 08:11:28;;;;;;;;;;;;;;;-142.75;100.00;77468.03;5031194;28;20485;-65
2022/05/29 08:13:54;;;;;;;;;;;;;;;-142.75;100.00;77434.53;5031199;28;19956;-66
2022/05/29 08:16:19;;;;;;;;;;;;;;;-142.75;100.00;77377.44;5031154;28;19956;-66
2022/05/29 08:18:45;;;;;;;;;;;;;;;-142.75;100.00;77375.47;5030828;28;20008;-66
2022/05/29 08:21:10;;;;;;;;;;;;;;;-142.75;100.00;77361.69;5030899;28;19917;-66
2022/05/29 08:23:35;;;;;;;;;;;;;;;-142.75;100.00;77365.63;5031033;28;19928;-66
2022/05/29 08:31:28;;;;;;;;;;;;;;;-142.75;100.00;77424.69;5010758;28;20358;-66
2022/05/29 08:33:53;;;;;;;;;;;;;;;-142.75;100.00;77428.63;5011048;28;19922;-66
2022/05/29 08:36:22;;;;;;;;;;;;;;;-142.75;100.00;77438.47;5010967;28;19960;-65
2022/05/29 08:38:48;;;;;;;;;;;;;;;-142.75;100.00;77440.44;5010717;28;20384;-66
2022/05/29 08:41:18;;;;;;;;;;;;;;;-142.75;100.00;77424.69;5010941;28;19925;-65
2022/05/29 08:43:53;;;;;;;;;;;;;;;-142.75;100.00;77420.75;5011034;28;19972;-66
2022/05/29 08:46:21;;;;;;;;;;;;;;;-142.75;100.00;77393.19;4993312;28;19921;-65
2022/05/29 08:48:48;;;;;;;;;;;;;;;-142.75;100.00;77387.28;5010611;28;19922;-65
2022/05/29 08:51:32;;;;;;;;;;;;;;;-142.75;100.00;77373.50;5010721;28;19943;-66
2022/05/29 08:54:03;;;;;;;;;;;;;;;-142.75;100.00;77365.63;5010620;28;19952;-65
2022/05/29 08:56:37;;;;;;;;;;;;;;;-142.75;100.00;77355.78;5010710;28;19930;-66
2022/05/29 08:59:20;;;;;;;;;;;;;;;-142.75;100.00;77324.28;5010523;28;19924;-66
2022/05/29 09:02:01;;;;;;;;;;;;;;;-142.75;100.00;77302.63;5010925;28;19917;-66
2022/05/29 09:04:26;;;;;;;;;;;;;;;-142.75;100.00;77298.69;5010560;28;20004;-66
2022/05/29 09:06:54;;;;;;;;;;;;;;;-142.75;100.00;77294.75;4992928;28;20024;-66
2022/05/29 09:09:19;;;;;;;;;;;;;;;-142.75;100.00;77290.81;5010269;28;19921;-65
2022/05/29 09:11:54;;;;;;;;;;;;;;;-142.75;100.00;77267.19;5010618;28;19921;-66
2022/05/29 09:14:19;;;;;;;;;;;;;;;-142.75;100.00;77263.25;4992649;28;19917;-66
2022/05/29 09:16:46;;;;;;;;;;;;;;;-142.75;100.00;77223.88;5010490;28;19922;-64
2022/05/29 09:19:31;;;;;;;;;;;;;;;-142.75;100.00;77253.41;5010048;28;19953;-63
2022/05/29 09:22:15;;;;;;;;;;;;;;;-142.75;100.00;77253.41;5010822;28;19995;-63
2022/05/29 09:24:46;;;;;;;;;;;;;;;-142.75;100.00;77265.22;5010358;28;19933;-63
2022/05/29 09:27:11;;;;;;;;;;;;;;;-142.75;100.00;77267.19;5010518;28;19926;-63
2022/05/29 09:29:37;;;;;;;;;;;;;;;-142.75;100.00;77271.13;5010154;28;19917;-63
2022/05/29 09:32:04;;;;;;;;;;;;;;;-142.75;100.00;77194.34;5010301;28;20017;-63
2022/05/29 09:34:29;;;;;;;;;;;;;;;-142.75;100.00;77172.69;5010314;28;19921;-64
2022/05/29 09:37:07;;;;;;;;;;;;;;;-142.75;100.00;77145.13;5010247;28;20465;-64
2022/05/29 09:39:39;;;;;;;;;;;;;;;-142.75;100.00;77090.00;5010106;28;19921;-65
2022/05/29 09:42:11;;;;;;;;;;;;;;;-142.75;100.00;77080.16;5010220;28;19917;-65
2022/05/29 09:44:36;;;;;;;;;;;;;;;-142.75;100.00;77070.31;5010202;28;20319;-64
2022/05/29 09:50:02;;;;;;;;;;;;;;;-142.75;100.00;77078.19;5010060;28;19964;-64
2022/05/29 09:52:30;;;;;;;;;;;;;;;-142.75;100.00;77070.31;5010245;28;20347;-64
2022/05/29 09:54:55;;;;;;;;;;;;;;;-142.75;100.00;77074.25;5009984;28;19917;-64
2022/05/29 09:57:23;;;;;;;;;;;;;;;-142.75;100.00;77042.75;5010181;28;19921;-64
2022/05/29 09:59:50;;;;;;;;;;;;;;;-142.75;100.00;76983.69;5009854;28;20437;-64
2022/05/29 10:02:22;;;;;;;;;;;;;;;-142.75;100.00;76967.94;5010325;28;19917;-64
2022/05/29 10:04:50;;;;;;;;;;;;;;;-142.75;100.00;76942.34;5009814;28;19925;-64
2022/05/29 10:07:19;;;;;;;;;;;;;;;-142.75;100.00;76928.56;5010078;28;19918;-65
2022/05/29 10:10:03;;;;;;;;;;;;;;;-142.75;100.00;76912.81;4992209;28;20303;-64
2022/05/29 10:12:39;;;;;;;;;;;;;;;-142.75;100.00;76857.69;4992541;28;19980;-66
2022/05/29 10:15:06;;;;;;;;;;;;;;;-142.75;100.00;76912.81;5010136;28;19918;-66
2022/05/29 10:17:33;;;;;;;;;;;;;;;-142.75;100.00;77007.31;5009968;28;19933;-67
2022/05/29 10:19:59;;;;;;;;;;;;;;;-142.75;100.00;77105.75;5009495;28;19925;-66
2022/05/29 10:22:30;;;;;;;;;;;;;;;-142.75;100.00;77180.56;4992440;28;19926;-67
2022/05/29 10:24:55;;;;;;;;;;;;;;;-142.75;100.00;77235.69;5009878;28;19971;-66
2022/05/29 10:27:23;;;;;;;;;;;;;;;-142.75;100.00;77273.09;5013338;28;19917;-66
2022/05/29 10:30:15;;;;;;;;;;;;;;;-142.75;100.00;77282.94;4995929;28;20339;-67
2022/05/29 10:32:41;;;;;;;;;;;;;;;-142.75;100.00;77288.84;4973109;28;20024;-67
2022/05/29 10:35:07;;;;;;;;;;;;;;;-142.75;100.00;77290.81;5013078;28;19928;-66
2022/05/29 10:37:37;;;;;;;;;;;;;;;-142.75;100.00;77298.69;5013054;28;20377;-66
2022/05/29 10:40:14;;;;;;;;;;;;;;;-142.75;100.00;77277.03;5012849;28;19925;-66
2022/05/29 10:42:43;;;;;;;;;;;;;;;-142.75;100.00;77241.59;5013149;28;19917;-66
2022/05/29 10:45:16;;;;;;;;;;;;;;;-142.75;100.00;77188.44;5012995;28;19944;-66
2022/05/29 10:47:48;;;;;;;;;;;;;;;-142.75;100.00;77156.94;5013198;28;20004;-66
2022/05/29 10:50:39;;;;;;;;;;;;;;;-142.75;100.00;77145.13;5012861;28;19917;-66
2022/05/29 10:53:04;;;;;;;;;;;;;;;-142.75;100.00;77160.88;5010008;28;19940;-67
2022/05/29 10:55:53;;;;;;;;;;;;;;;-142.75;100.00;77192.38;5012740;28;19917;-66
2022/05/29 10:58:37;;;;;;;;;;;;;;;-142.75;100.00;77186.47;5012832;28;20459;-66
2022/05/29 11:03:17;;;;;;;;;;;;;;;-142.75;100.00;77196.31;5012942;28;20299;-66
2022/05/29 11:03:58;;;;;;;;;;;;;;;-142.75;100.00;77233.72;5012389;28;19933;-67
2022/05/29 11:06:40;;;;;;;;;;;;;;;-142.75;100.00;77251.44;5012727;28;19918;-67
2022/05/29 11:09:20;;;;;;;;;;;;;;;-142.75;100.00;77221.91;5012465;28;19932;-66
2022/05/29 11:11:48;;;;;;;;;;;;;;;-142.75;100.00;77204.19;5012861;28;19921;-67
2022/05/29 11:14:31;;;;;;;;;;;;;;;-142.75;100.00;77129.38;5012571;28;20016;-66
2022/05/29 11:17:16;;;;;;;;;;;;;;;-142.75;100.00;77078.19;5012624;28;19984;-66
2022/05/29 11:20:00;;;;;;;;;;;;;;;-142.75;100.00;77058.50;5011435;28;19918;-66
2022/05/29 11:23:01;;;;;;;;;;;;;;;-142.75;100.00;77050.63;5012412;28;19918;-66
2022/05/29 11:25:44;;;;;;;;;;;;;;;-142.75;100.00;77062.44;4951481;29;19918;-65
2022/05/29 11:28:17;;;;;;;;;;;;;;;-142.75;100.00;77060.47;5006613;28;19917;-65
2022/05/29 11:31:08;;;;;;;;;;;;;;;-142.75;100.00;77064.41;5012250;28;19921;-67
2022/05/29 11:33:37;;;;;;;;;;;;;;;-142.75;100.00;77062.44;5008926;28;19924;-66
2022/05/29 11:36:26;;;;;;;;;;;;;;;-142.75;100.00;77034.88;5011810;28;19921;-66
2022/05/29 11:39:06;;;;;;;;;;;;;;;-142.75;100.00;77025.03;5011888;28;19921;-67
2022/05/29 11:41:37;;;;;;;;;;;;;;;-142.75;100.00;77015.19;5012055;28;19938;-66
2022/05/29 11:44:05;;;;;;;;;;;;;;;-142.75;100.00;77028.97;5011905;28;19975;-66
2022/05/29 11:52:43;;;;;;;;;;;;;;;-142.75;100.00;77023.06;5012394;28;20286;-65
2022/05/29 11:55:15;;;;;;;;;;;;;;;-142.75;100.00;77050.63;5011636;28;20326;-65
2022/05/29 11:57:40;;;;;;;;;;;;;;;-142.75;100.00;77042.75;5011833;28;19984;-65
2022/05/29 12:00:10;;;;;;;;;;;;;;;-142.75;100.00;77048.66;5011377;28;20387;-65
2022/05/29 12:02:38;;;;;;;;;;;;;;;-142.75;100.00;77046.69;5011602;28;19925;-65
2022/05/29 12:05:22;;;;;;;;;;;;;;;-142.75;100.00;77034.88;5011607;28;20310;-65
2022/05/29 12:07:55;;;;;;;;;;;;;;;-142.75;100.00;77038.81;5011553;28;19925;-65
2022/05/29 12:10:26;;;;;;;;;;;;;;;-142.75;100.00;77027.00;5011656;28;20494;-66
2022/05/29 12:13:03;;;;;;;;;;;;;;;-142.75;100.00;77015.19;5042624;23;19925;-67
2022/05/29 12:15:30;;;;;;;;;;;;;;;-142.75;100.00;77025.03;5049813;28;19925;-70
2022/05/29 12:17:58;;;;;;;;;;;;;;;-142.75;100.00;77030.94;5051150;28;19921;-71
2022/05/29 12:20:34;;;;;;;;;;;;;;;-142.75;100.00;77048.66;5051874;28;19917;-70
2022/05/29 12:23:02;;;;;;;;;;;;;;;-142.75;100.00;77044.72;5051776;28;20439;-70
2022/05/29 12:25:47;;;;;;;;;;;;;;;-142.75;100.00;77052.59;5050538;28;20382;-70
2022/05/29 12:28:23;;;;;;;;;;;;;;;-142.75;100.00;77040.78;5051606;28;20575;-70
2022/05/29 12:30:49;;;;;;;;;;;;;;;-142.75;100.00;77038.81;5051750;28;19921;-70
2022/05/29 12:33:16;;;;;;;;;;;;;;;-142.75;100.00;77023.06;5051720;28;19917;-70
2022/05/29 12:35:57;;;;;;;;;;;;;;;-142.75;100.00;77030.94;5051746;28;19959;-70
2022/05/29 12:38:32;;;;;;;;;;;;;;;-142.75;100.00;77001.41;5051486;28;19920;-71
2022/05/29 12:41:16;;;;;;;;;;;;;;;-142.75;100.00;77011.25;5051575;28;20007;-70
2022/05/29 12:43:41;;;;;;;;;;;;;;;-142.75;100.00;77005.34;5051718;28;19952;-70
2022/05/29 12:46:13;;;;;;;;;;;;;;;-142.75;100.00;77015.19;5050208;28;20321;-71
2022/05/29 12:48:38;;;;;;;;;;;;;;;-142.75;100.00;77017.16;5050637;28;20329;-70
2022/05/29 12:51:20;;;;;;;;;;;;;;;-142.75;100.00;77011.25;5034360;28;19917;-70
2022/05/29 12:54:05;;;;;;;;;;;;;;;-142.75;100.00;76999.44;5031246;28;20448;-70
2022/05/29 12:56:39;;;;;;;;;;;;;;;-142.75;100.00;76948.25;5031404;28;19921;-70
2022/05/29 12:59:17;;;;;;;;;;;;;;;-142.75;100.00;76960.06;5031156;28;19917;-70